Aviation Digital Data Service (ADDS)

Output produced by METARs form (2156 UTC 20 June 2019)
found at http://www.aviationweather.gov/metar/data/
 
KGED 202154Z AUTO 24011G19KT 10SM FEW050 32/21 A2951 RMK AO2 SLP992 T03170211